Time;durP1;ratioP1;P1;durP2;ratioP2;P2;SDS_P1;SDS_P2;PMS_P1;PMS_P2;Temp;Humidity;BMP_temperature;BMP_pressure;BME280_temperature;BME280_humidity;BME280_pressure;Samples;Min_cycle;Max_cycle;Signal;HPM_P1;HPM_P2
2021/12/29 00:01:49;;;;;;;56.03;9.68;;;;;;;;;;4969298;28;20129;-86
2021/12/29 00:04:16;;;;;;;115.20;12.77;;;;;;;;;;4969576;28;20046;-85
2021/12/29 00:06:42;;;;;;;45.88;10.52;;;;;;;;;;4971730;28;20519;-87
2021/12/29 00:09:08;;;;;;;42.35;10.93;;;;;;;;;;4971629;28;20181;-87
2021/12/29 00:11:39;;;;;;;42.42;11.00;;;;;;;;;;4970597;28;20125;-86
2021/12/29 00:14:06;;;;;;;34.90;11.68;;;;;;;;;;4968997;28;20054;-87
2021/12/29 00:16:34;;;;;;;35.00;12.77;;;;;;;;;;4970021;28;20043;-87
2021/12/29 00:19:07;;;;;;;35.67;11.98;;;;;;;;;;4969406;28;20050;-87
2021/12/29 00:21:33;;;;;;;34.78;12.60;;;;;;;;;;4970887;28;20387;-87
2021/12/29 00:24:00;;;;;;;36.60;12.68;;;;;;;;;;4970425;28;20436;-87
2021/12/29 00:26:27;;;;;;;40.92;13.45;;;;;;;;;;4970163;28;20491;-87
2021/12/29 00:28:53;;;;;;;33.05;14.07;;;;;;;;;;4967522;28;20044;-87
2021/12/29 00:31:19;;;;;;;32.33;12.88;;;;;;;;;;4971106;28;20054;-86
2021/12/29 00:33:45;;;;;;;39.80;13.82;;;;;;;;;;4969612;28;20051;-87
2021/12/29 00:36:12;;;;;;;32.25;14.43;;;;;;;;;;4968193;28;20043;-87
2021/12/29 00:38:38;;;;;;;34.78;14.25;;;;;;;;;;4968709;28;20227;-86
2021/12/29 00:41:04;;;;;;;30.55;14.40;;;;;;;;;;4970303;28;20183;-87
2021/12/29 00:43:30;;;;;;;30.50;14.10;;;;;;;;;;4969832;28;20046;-87
2021/12/29 00:45:56;;;;;;;26.77;12.52;;;;;;;;;;4970112;28;20038;-88
2021/12/29 00:48:28;;;;;;;23.67;11.73;;;;;;;;;;4971536;28;20046;-87
2021/12/29 00:50:54;;;;;;;29.00;12.93;;;;;;;;;;4970634;28;20113;-87
2021/12/29 00:53:20;;;;;;;29.65;13.98;;;;;;;;;;4966477;28;20050;-85
2021/12/29 00:55:46;;;;;;;33.50;13.57;;;;;;;;;;4967975;28;20125;-86
2021/12/29 00:58:12;;;;;;;29.33;14.23;;;;;;;;;;4970077;28;20097;-87
2021/12/29 01:00:40;;;;;;;30.27;13.00;;;;;;;;;;4965017;28;20042;-87
2021/12/29 01:03:07;;;;;;;26.70;12.02;;;;;;;;;;4970367;28;20047;-88
2021/12/29 01:05:33;;;;;;;28.38;13.32;;;;;;;;;;4969357;28;20042;-87
2021/12/29 01:07:59;;;;;;;26.60;11.80;;;;;;;;;;4972460;28;20579;-87
2021/12/29 01:10:26;;;;;;;24.63;11.20;;;;;;;;;;4969799;28;20049;-87
2021/12/29 01:12:56;;;;;;;20.65;10.40;;;;;;;;;;4969404;28;20138;-86
2021/12/29 01:15:27;;;;;;;22.77;11.00;;;;;;;;;;4968808;28;20059;-87
2021/12/29 01:17:54;;;;;;;21.88;10.88;;;;;;;;;;4970539;28;20046;-87
2021/12/29 01:20:21;;;;;;;18.20;11.05;;;;;;;;;;4966439;28;20519;-84
2021/12/29 01:22:47;;;;;;;17.90;10.88;;;;;;;;;;4970522;28;20129;-86
2021/12/29 01:25:13;;;;;;;19.60;9.45;;;;;;;;;;4969992;28;20513;-87
2021/12/29 01:27:39;;;;;;;13.73;9.18;;;;;;;;;;4966555;28;20104;-87
2021/12/29 01:30:09;;;;;;;17.92;8.82;;;;;;;;;;4966375;28;20047;-87
2021/12/29 01:32:35;;;;;;;16.15;8.15;;;;;;;;;;4969626;28;20526;-87
2021/12/29 01:35:02;;;;;;;18.15;8.32;;;;;;;;;;4969460;28;20043;-87
2021/12/29 01:37:28;;;;;;;12.68;7.47;;;;;;;;;;4969580;28;20077;-86
2021/12/29 01:39:54;;;;;;;14.70;7.07;;;;;;;;;;4968047;28;20479;-86
2021/12/29 01:42:20;;;;;;;17.70;6.60;;;;;;;;;;4968422;28;20122;-86
2021/12/29 01:44:46;;;;;;;15.68;7.00;;;;;;;;;;4974619;28;20046;-86
2021/12/29 01:47:12;;;;;;;13.48;6.10;;;;;;;;;;4970311;28;20106;-86
2021/12/29 01:49:40;;;;;;;10.88;5.25;;;;;;;;;;4970354;28;20047;-87
2021/12/29 01:52:10;;;;;;;11.68;5.72;;;;;;;;;;4969111;28;20055;-85
2021/12/29 01:54:37;;;;;;;11.25;5.57;;;;;;;;;;4968183;28;20109;-86
2021/12/29 01:57:04;;;;;;;14.35;6.13;;;;;;;;;;4968692;28;20075;-85
2021/12/29 01:59:30;;;;;;;17.45;6.15;;;;;;;;;;4970227;28;20520;-86
2021/12/29 02:01:56;;;;;;;16.63;7.60;;;;;;;;;;4968978;28;20521;-86
2021/12/29 02:04:23;;;;;;;19.77;6.88;;;;;;;;;;4969704;28;20055;-86
2021/12/29 02:06:49;;;;;;;19.75;7.95;;;;;;;;;;4970673;28;20840;-86
2021/12/29 02:09:15;;;;;;;19.02;8.23;;;;;;;;;;4969686;28;20570;-87
2021/12/29 02:11:42;;;;;;;19.58;7.82;;;;;;;;;;4969620;28;20077;-87
2021/12/29 02:14:09;;;;;;;19.17;8.77;;;;;;;;;;4968769;28;20462;-87
2021/12/29 02:16:35;;;;;;;23.42;9.15;;;;;;;;;;4977072;28;20038;-86
2021/12/29 02:19:03;;;;;;;29.45;9.70;;;;;;;;;;4973851;28;20051;-87
2021/12/29 02:21:31;;;;;;;26.90;9.05;;;;;;;;;;4976034;28;20490;-86
2021/12/29 02:26:28;;;;;;;22.55;9.73;;;;;;;;;;4972829;28;20046;-88
2021/12/29 02:28:55;;;;;;;25.45;8.48;;;;;;;;;;4974845;28;20494;-88
2021/12/29 02:31:22;;;;;;;21.90;8.05;;;;;;;;;;4972312;28;20058;-86
2021/12/29 02:33:48;;;;;;;19.92;8.10;;;;;;;;;;4973549;28;20051;-86
2021/12/29 02:36:17;;;;;;;25.63;9.48;;;;;;;;;;4974865;28;20125;-87
2021/12/29 02:38:48;;;;;;;18.20;8.93;;;;;;;;;;4972256;28;20071;-88
2021/12/29 02:41:14;;;;;;;31.23;9.90;;;;;;;;;;4973105;28;20106;-87
2021/12/29 02:43:41;;;;;;;23.58;9.57;;;;;;;;;;4969336;28;20046;-86
2021/12/29 02:46:11;;;;;;;20.92;9.57;;;;;;;;;;4969611;28;20059;-88
2021/12/29 02:48:40;;;;;;;28.83;11.55;;;;;;;;;;4974123;28;20039;-87
2021/12/29 02:51:08;;;;;;;31.77;11.05;;;;;;;;;;4980667;28;20394;-88
2021/12/29 02:53:35;;;;;;;26.75;10.68;;;;;;;;;;4971648;28;20085;-87
2021/12/29 02:56:02;;;;;;;24.05;10.15;;;;;;;;;;4971546;28;20034;-87
2021/12/29 02:58:28;;;;;;;24.02;10.70;;;;;;;;;;4969602;28;20423;-87
2021/12/29 03:00:55;;;;;;;26.88;11.23;;;;;;;;;;4969063;28;20050;-87
2021/12/29 03:03:23;;;;;;;24.60;11.15;;;;;;;;;;4972427;28;20137;-87
2021/12/29 03:05:49;;;;;;;23.05;9.68;;;;;;;;;;4988470;28;20042;-87
2021/12/29 03:08:16;;;;;;;25.13;10.35;;;;;;;;;;4971878;28;20117;-87
2021/12/29 03:10:43;;;;;;;25.65;10.82;;;;;;;;;;4971695;28;20051;-87
2021/12/29 03:13:09;;;;;;;22.30;10.27;;;;;;;;;;4970920;28;20403;-87
2021/12/29 03:15:36;;;;;;;23.83;9.38;;;;;;;;;;4970452;28;20379;-86
2021/12/29 03:18:03;;;;;;;20.73;8.65;;;;;;;;;;4974490;28;20097;-87
2021/12/29 03:20:30;;;;;;;23.08;9.23;;;;;;;;;;4967157;28;20054;-88
2021/12/29 03:22:56;;;;;;;19.17;8.75;;;;;;;;;;4971126;28;20059;-87
2021/12/29 03:25:23;;;;;;;25.40;8.60;;;;;;;;;;4970188;28;20081;-88
2021/12/29 03:27:49;;;;;;;19.63;8.93;;;;;;;;;;4969834;28;20054;-88
2021/12/29 03:30:15;;;;;;;23.48;9.18;;;;;;;;;;4965359;28;20047;-88
2021/12/29 03:32:49;;;;;;;21.30;9.52;;;;;;;;;;4972560;28;20541;-87
2021/12/29 03:35:15;;;;;;;19.42;8.95;;;;;;;;;;4967505;28;20051;-87
2021/12/29 03:37:41;;;;;;;17.98;8.82;;;;;;;;;;4975709;28;20506;-87
2021/12/29 03:40:08;;;;;;;26.13;10.00;;;;;;;;;;4971289;28;20047;-87
2021/12/29 03:42:34;;;;;;;18.27;8.80;;;;;;;;;;4969835;28;20043;-88
2021/12/29 03:45:00;;;;;;;25.23;9.60;;;;;;;;;;4969987;28;20100;-86
2021/12/29 03:47:26;;;;;;;21.92;8.85;;;;;;;;;;4969452;28;20454;-88
2021/12/29 03:49:52;;;;;;;18.45;8.85;;;;;;;;;;4971364;28;20049;-86
2021/12/29 03:52:18;;;;;;;20.25;8.52;;;;;;;;;;4971325;28;20051;-87
2021/12/29 03:54:44;;;;;;;19.48;8.18;;;;;;;;;;4979938;28;20157;-88
2021/12/29 03:57:10;;;;;;;23.15;9.20;;;;;;;;;;4971523;28;20186;-87
2021/12/29 03:59:36;;;;;;;25.83;8.52;;;;;;;;;;4973012;28;20149;-88
2021/12/29 04:02:02;;;;;;;23.73;8.98;;;;;;;;;;4971340;28;20395;-88
2021/12/29 04:04:28;;;;;;;18.63;8.27;;;;;;;;;;4968742;28;20165;-87
2021/12/29 04:06:54;;;;;;;20.95;8.30;;;;;;;;;;4977647;28;20145;-88
2021/12/29 04:09:20;;;;;;;16.55;8.73;;;;;;;;;;4968927;28;20482;-88
2021/12/29 04:11:50;;;;;;;25.83;8.85;;;;;;;;;;4968760;28;20154;-88
2021/12/29 04:14:19;;;;;;;17.90;8.65;;;;;;;;;;4975798;28;20051;-88
2021/12/29 04:16:46;;;;;;;21.00;8.85;;;;;;;;;;4967693;28;20058;-87
2021/12/29 04:19:28;;;;;;;25.73;8.55;;;;;;;;;;4969244;28;20047;-88
2021/12/29 04:21:54;;;;;;;15.85;8.20;;;;;;;;;;4971419;28;20055;-87
2021/12/29 04:24:20;;;;;;;20.48;8.05;;;;;;;;;;4967645;28;20043;-88
2021/12/29 04:26:46;;;;;;;18.88;8.23;;;;;;;;;;4969869;28;20054;-88
2021/12/29 04:29:13;;;;;;;19.48;8.50;;;;;;;;;;4966232;28;20054;-88
2021/12/29 04:31:40;;;;;;;21.02;7.55;;;;;;;;;;4970512;28;20062;-88
2021/12/29 04:34:06;;;;;;;18.63;7.80;;;;;;;;;;4967745;28;20504;-88
2021/12/29 04:36:33;;;;;;;21.30;7.65;;;;;;;;;;4969909;28;20054;-88
2021/12/29 04:39:01;;;;;;;14.93;6.47;;;;;;;;;;4966333;28;20501;-88
2021/12/29 04:41:27;;;;;;;18.80;6.75;;;;;;;;;;4971729;28;20051;-88
2021/12/29 04:43:53;;;;;;;14.82;6.70;;;;;;;;;;4969529;28;20051;-87
2021/12/29 04:46:27;;;;;;;18.45;6.22;;;;;;;;;;4968688;28;20102;-88
2021/12/29 04:48:59;;;;;;;21.13;7.10;;;;;;;;;;4969293;28;20189;-88
2021/12/29 04:51:33;;;;;;;12.73;5.45;;;;;;;;;;4969130;28;20051;-88
2021/12/29 04:53:59;;;;;;;19.95;6.70;;;;;;;;;;4965853;28;20505;-87
2021/12/29 04:56:25;;;;;;;15.48;6.22;;;;;;;;;;4972724;28;20046;-88
2021/12/29 04:58:51;;;;;;;16.95;6.18;;;;;;;;;;4967350;28;20054;-87
2021/12/29 05:01:17;;;;;;;20.30;6.80;;;;;;;;;;4971853;28;20510;-88
2021/12/29 05:03:44;;;;;;;17.65;6.22;;;;;;;;;;4968229;28;20062;-88
2021/12/29 05:08:37;;;;;;;20.75;6.72;;;;;;;;;;4968455;28;20053;-89
2021/12/29 05:11:13;;;;;;;16.83;7.10;;;;;;;;;;4970204;28;20039;-88
2021/12/29 05:13:41;;;;;;;17.77;6.80;;;;;;;;;;4968002;28;20143;-88
2021/12/29 05:16:07;;;;;;;19.33;6.75;;;;;;;;;;4970421;28;20045;-88
2021/12/29 05:18:35;;;;;;;19.65;6.93;;;;;;;;;;4965129;28;20498;-87
2021/12/29 05:21:02;;;;;;;24.83;6.72;;;;;;;;;;4966307;28;20045;-88
2021/12/29 05:23:28;;;;;;;25.08;8.32;;;;;;;;;;4968401;28;20050;-88
2021/12/29 05:25:54;;;;;;;25.50;8.00;;;;;;;;;;4971431;28;20043;-88
2021/12/29 05:28:20;;;;;;;47.67;9.23;;;;;;;;;;4972852;28;20049;-88
2021/12/29 05:30:47;;;;;;;37.88;9.65;;;;;;;;;;4973770;28;20084;-88
2021/12/29 05:33:14;;;;;;;59.55;8.65;;;;;;;;;;4968243;28;20074;-89
2021/12/29 05:35:41;;;;;;;36.47;7.57;;;;;;;;;;4969643;28;20094;-87
2021/12/29 05:38:07;;;;;;;32.25;8.15;;;;;;;;;;4969166;28;20130;-89
2021/12/29 05:40:33;;;;;;;29.33;8.02;;;;;;;;;;4967617;28;20085;-88
2021/12/29 05:42:59;;;;;;;34.97;7.18;;;;;;;;;;4971656;28;20074;-88
2021/12/29 05:45:26;;;;;;;48.50;7.63;;;;;;;;;;4966532;28;20125;-88
2021/12/29 05:47:52;;;;;;;53.72;8.07;;;;;;;;;;4963622;28;20106;-87
2021/12/29 05:50:20;;;;;;;59.80;7.43;;;;;;;;;;4965915;28;20055;-88
2021/12/29 05:52:46;;;;;;;67.90;8.05;;;;;;;;;;4966989;28;20435;-88
2021/12/29 05:55:13;;;;;;;45.38;7.18;;;;;;;;;;4960760;28;20054;-88
2021/12/29 05:57:39;;;;;;;45.13;7.82;;;;;;;;;;4969670;28;20065;-87
2021/12/29 06:00:07;;;;;;;48.42;8.10;;;;;;;;;;4974414;28;20057;-88
2021/12/29 06:02:33;;;;;;;57.25;7.45;;;;;;;;;;4969987;28;20046;-87
2021/12/29 06:04:59;;;;;;;42.70;7.47;;;;;;;;;;4959942;28;20043;-87
2021/12/29 06:07:25;;;;;;;44.15;6.70;;;;;;;;;;4967861;28;20077;-86
2021/12/29 06:09:51;;;;;;;46.45;7.50;;;;;;;;;;4969189;28;20053;-86
2021/12/29 06:12:17;;;;;;;42.88;6.53;;;;;;;;;;4966970;28;20055;-88
2021/12/29 06:14:44;;;;;;;50.47;6.75;;;;;;;;;;4971377;28;20046;-87
2021/12/29 06:17:11;;;;;;;60.35;7.63;;;;;;;;;;4967590;28;20054;-86
2021/12/29 06:19:37;;;;;;;43.10;7.50;;;;;;;;;;4967927;28;20491;-87
2021/12/29 06:22:08;;;;;;;45.80;7.22;;;;;;;;;;4967976;28;20134;-87
2021/12/29 06:24:34;;;;;;;47.08;8.63;;;;;;;;;;4967383;28;20098;-88
2021/12/29 06:27:00;;;;;;;37.42;7.45;;;;;;;;;;4972019;28;20133;-88
2021/12/29 06:29:26;;;;;;;37.17;7.45;;;;;;;;;;4971287;28;20050;-88
2021/12/29 06:31:52;;;;;;;37.97;7.43;;;;;;;;;;4973904;28;20050;-88
2021/12/29 06:34:18;;;;;;;64.03;8.48;;;;;;;;;;4967035;28;20067;-87
2021/12/29 06:36:44;;;;;;;53.28;7.45;;;;;;;;;;4970734;28;20043;-87
2021/12/29 06:39:10;;;;;;;41.15;7.45;;;;;;;;;;4966584;28;20066;-87
2021/12/29 06:41:36;;;;;;;38.83;7.68;;;;;;;;;;4963300;28;20057;-88
2021/12/29 06:44:02;;;;;;;41.75;7.78;;;;;;;;;;4967722;28;20573;-87
2021/12/29 06:46:28;;;;;;;52.28;8.85;;;;;;;;;;4969883;28;20050;-87
2021/12/29 06:48:55;;;;;;;40.15;8.10;;;;;;;;;;4967303;28;20189;-87
2021/12/29 06:51:21;;;;;;;45.35;8.32;;;;;;;;;;4969181;28;20066;-87
2021/12/29 06:53:46;;;;;;;47.90;8.85;;;;;;;;;;4966278;28;20046;-87
2021/12/29 06:56:12;;;;;;;43.05;7.95;;;;;;;;;;4969004;28;20531;-87
2021/12/29 06:58:39;;;;;;;43.30;7.75;;;;;;;;;;4965280;28;20082;-87
2021/12/29 07:01:05;;;;;;;40.25;7.53;;;;;;;;;;4971496;28;20043;-88
2021/12/29 07:03:31;;;;;;;25.45;7.25;;;;;;;;;;4971302;28;20047;-87
2021/12/29 07:05:59;;;;;;;27.50;7.13;;;;;;;;;;4969519;28;20274;-87
2021/12/29 07:08:25;;;;;;;15.15;6.05;;;;;;;;;;4969057;28;20494;-88
2021/12/29 07:10:51;;;;;;;20.90;6.32;;;;;;;;;;4970764;28;20038;-87
2021/12/29 07:13:17;;;;;;;14.25;5.57;;;;;;;;;;4970535;28;20074;-87
2021/12/29 07:15:43;;;;;;;18.63;6.45;;;;;;;;;;4967038;28;20070;-87
2021/12/29 07:18:09;;;;;;;15.90;6.85;;;;;;;;;;4973948;28;20533;-87
2021/12/29 07:20:38;;;;;;;17.83;6.30;;;;;;;;;;4972291;28;20402;-87
2021/12/29 07:23:04;;;;;;;19.50;6.90;;;;;;;;;;4972509;28;20070;-87
2021/12/29 07:25:30;;;;;;;13.27;6.10;;;;;;;;;;4968635;28;20058;-87
2021/12/29 07:27:56;;;;;;;18.67;6.15;;;;;;;;;;4966211;28;20039;-87
2021/12/29 07:30:22;;;;;;;22.70;7.10;;;;;;;;;;4967446;28;20061;-87
2021/12/29 07:32:49;;;;;;;16.08;5.78;;;;;;;;;;4971008;28;20564;-87
2021/12/29 07:35:15;;;;;;;17.35;5.68;;;;;;;;;;4969259;28;20565;-87
2021/12/29 07:37:41;;;;;;;16.70;6.28;;;;;;;;;;4976455;28;20050;-87
2021/12/29 07:40:08;;;;;;;15.80;6.00;;;;;;;;;;4970638;28;20105;-88
2021/12/29 07:42:39;;;;;;;14.88;5.70;;;;;;;;;;4971697;28;20157;-87
2021/12/29 07:45:07;;;;;;;14.70;5.10;;;;;;;;;;4970233;28;20054;-88
2021/12/29 07:47:34;;;;;;;12.65;5.88;;;;;;;;;;4970156;28;20078;-87
2021/12/29 07:50:00;;;;;;;18.17;5.50;;;;;;;;;;4972840;28;20494;-86
2021/12/29 07:52:26;;;;;;;16.02;5.30;;;;;;;;;;4970915;28;20046;-88
2021/12/29 07:54:52;;;;;;;15.13;4.95;;;;;;;;;;4974709;28;20129;-87
2021/12/29 07:57:18;;;;;;;15.85;5.45;;;;;;;;;;4966174;28;20138;-88
2021/12/29 07:59:44;;;;;;;14.48;5.55;;;;;;;;;;4967656;28;20499;-88
2021/12/29 08:02:14;;;;;;;16.65;4.85;;;;;;;;;;4973318;28;20057;-87
2021/12/29 08:04:40;;;;;;;13.15;4.80;;;;;;;;;;4971222;28;20051;-83
2021/12/29 08:07:06;;;;;;;19.23;5.35;;;;;;;;;;4966024;28;20051;-87
2021/12/29 08:09:32;;;;;;;13.32;4.43;;;;;;;;;;4971988;28;20129;-89
2021/12/29 08:11:58;;;;;;;14.98;4.57;;;;;;;;;;4972837;28;20056;-87
2021/12/29 08:14:24;;;;;;;15.43;4.13;;;;;;;;;;4963445;28;20449;-88
2021/12/29 08:16:50;;;;;;;11.50;4.63;;;;;;;;;;4969588;28;20053;-90
2021/12/29 08:19:16;;;;;;;12.57;4.40;;;;;;;;;;4970585;28;20053;-87
2021/12/29 08:21:43;;;;;;;19.38;5.10;;;;;;;;;;4972183;28;20053;-90
2021/12/29 08:24:09;;;;;;;19.30;6.22;;;;;;;;;;4967598;28;20055;-85
2021/12/29 08:26:35;;;;;;;15.50;5.05;;;;;;;;;;4967976;28;20896;-86
2021/12/29 08:29:01;;;;;;;15.82;4.60;;;;;;;;;;4968852;28;20043;-89
2021/12/29 08:31:28;;;;;;;11.55;4.20;;;;;;;;;;4973740;28;20059;-88
2021/12/29 08:33:54;;;;;;;14.20;5.32;;;;;;;;;;4969090;28;20061;-83
2021/12/29 08:36:20;;;;;;;14.00;4.53;;;;;;;;;;4973679;28;20046;-87
2021/12/29 08:38:47;;;;;;;14.13;4.20;;;;;;;;;;4968708;28;20392;-87
2021/12/29 08:41:13;;;;;;;13.88;4.40;;;;;;;;;;4970314;28;20054;-89
2021/12/29 08:43:39;;;;;;;16.70;3.75;;;;;;;;;;4969898;28;20050;-88
2021/12/29 08:46:05;;;;;;;14.48;3.92;;;;;;;;;;4970146;28;20406;-86
2021/12/29 08:48:31;;;;;;;17.40;5.15;;;;;;;;;;4970250;28;20046;-85
2021/12/29 08:50:59;;;;;;;13.70;3.80;;;;;;;;;;4970348;28;20047;-87
2021/12/29 08:53:25;;;;;;;15.38;4.70;;;;;;;;;;4967657;28;20126;-88
2021/12/29 08:55:51;;;;;;;12.05;3.80;;;;;;;;;;4967780;28;20077;-85
2021/12/29 08:58:18;;;;;;;14.40;3.88;;;;;;;;;;4970899;28;20058;-87
2021/12/29 09:00:44;;;;;;;11.38;3.42;;;;;;;;;;4970139;28;20043;-87
2021/12/29 09:03:10;;;;;;;10.77;3.72;;;;;;;;;;4974885;28;20819;-81
2021/12/29 09:05:37;;;;;;;13.98;3.67;;;;;;;;;;4968484;28;20035;-84
2021/12/29 09:08:03;;;;;;;16.80;4.32;;;;;;;;;;4970913;28;20058;-85
2021/12/29 09:10:29;;;;;;;29.55;9.63;;;;;;;;;;4970819;28;20399;-86
2021/12/29 09:12:55;;;;;;;15.75;3.17;;;;;;;;;;4964556;28;20051;-85
2021/12/29 09:15:22;;;;;;;21.60;4.03;;;;;;;;;;4968157;28;20146;-85
2021/12/29 09:17:48;;;;;;;11.95;4.05;;;;;;;;;;4962634;28;20059;-85
2021/12/29 09:20:24;;;;;;;13.88;3.33;;;;;;;;;;4968251;28;20052;-87
2021/12/29 09:22:51;;;;;;;13.65;3.72;;;;;;;;;;4968292;28;20391;-86
2021/12/29 09:25:17;;;;;;;17.27;3.90;;;;;;;;;;4966639;28;20054;-84
2021/12/29 09:27:47;;;;;;;19.77;4.95;;;;;;;;;;4967830;28;20065;-86
2021/12/29 09:30:13;;;;;;;14.90;3.47;;;;;;;;;;4969812;28;20398;-87
2021/12/29 09:32:39;;;;;;;24.63;4.38;;;;;;;;;;4970092;28;20042;-88
2021/12/29 09:35:06;;;;;;;18.13;3.90;;;;;;;;;;4966976;28;20035;-83
2021/12/29 09:37:32;;;;;;;22.42;5.22;;;;;;;;;;4969226;28;20054;-91
2021/12/29 09:39:58;;;;;;;17.15;4.75;;;;;;;;;;4968409;28;20100;-87
2021/12/29 09:42:24;;;;;;;20.25;5.20;;;;;;;;;;4967624;28;20070;-87
2021/12/29 09:44:51;;;;;;;21.20;5.05;;;;;;;;;;4968709;28;20847;-87
2021/12/29 09:47:17;;;;;;;27.60;5.72;;;;;;;;;;4960767;28;20121;-85
2021/12/29 09:49:44;;;;;;;29.58;5.75;;;;;;;;;;4967642;28;20110;-84
2021/12/29 09:52:10;;;;;;;23.10;5.50;;;;;;;;;;4968085;28;20050;-83
2021/12/29 09:54:36;;;;;;;25.63;5.60;;;;;;;;;;4974221;28;20130;-86
2021/12/29 09:57:03;;;;;;;24.08;5.80;;;;;;;;;;4966324;28;20086;-83
2021/12/29 09:59:29;;;;;;;18.33;5.25;;;;;;;;;;4973189;28;20051;-85
2021/12/29 10:01:57;;;;;;;16.50;5.28;;;;;;;;;;4973421;28;20051;-84
2021/12/29 10:04:23;;;;;;;21.70;5.72;;;;;;;;;;4974240;28;20101;-85
2021/12/29 10:06:49;;;;;;;19.23;5.53;;;;;;;;;;4971738;28;20046;-85
2021/12/29 10:09:18;;;;;;;17.35;4.97;;;;;;;;;;4973724;28;20485;-87
2021/12/29 10:11:45;;;;;;;16.05;4.40;;;;;;;;;;4969044;28;20058;-86
2021/12/29 10:14:12;;;;;;;22.92;5.03;;;;;;;;;;4975205;28;20063;-86
2021/12/29 10:16:39;;;;;;;22.15;6.40;;;;;;;;;;4968096;28;20077;-86
2021/12/29 10:19:06;;;;;;;18.83;6.68;;;;;;;;;;4968192;28;20047;-85
2021/12/29 10:21:33;;;;;;;24.65;6.90;;;;;;;;;;4969341;28;20121;-85
2021/12/29 10:24:01;;;;;;;34.97;13.30;;;;;;;;;;4965873;28;20491;-86
2021/12/29 10:26:28;;;;;;;21.27;5.97;;;;;;;;;;4970008;28;20066;-85
2021/12/29 10:29:00;;;;;;;23.33;6.65;;;;;;;;;;4968495;28;20495;-85
2021/12/29 10:31:34;;;;;;;21.42;5.50;;;;;;;;;;4968961;28;20054;-85
2021/12/29 10:34:01;;;;;;;16.90;6.50;;;;;;;;;;4968438;28;20128;-85
2021/12/29 10:36:27;;;;;;;19.90;6.70;;;;;;;;;;4968637;28;20081;-85
2021/12/29 10:39:08;;;;;;;17.85;5.10;;;;;;;;;;4969361;28;20133;-85
2021/12/29 10:41:43;;;;;;;21.73;10.13;;;;;;;;;;4971795;28;20387;-85
2021/12/29 10:44:10;;;;;;;19.75;7.75;;;;;;;;;;4968677;28;20495;-84
2021/12/29 10:46:36;;;;;;;18.30;4.97;;;;;;;;;;4976176;28;20054;-83
2021/12/29 10:49:05;;;;;;;13.48;5.15;;;;;;;;;;4972411;28;20057;-82
2021/12/29 10:51:49;;;;;;;17.20;4.80;;;;;;;;;;4969921;28;20050;-83
2021/12/29 10:54:18;;;;;;;19.27;5.30;;;;;;;;;;4972138;28;20051;-82
2021/12/29 10:56:45;;;;;;;18.63;5.32;;;;;;;;;;4972068;28;20113;-83
2021/12/29 10:59:23;;;;;;;13.93;5.35;;;;;;;;;;4967519;28;20054;-84
2021/12/29 11:01:49;;;;;;;14.63;5.35;;;;;;;;;;4968277;28;20115;-85
2021/12/29 11:04:16;;;;;;;18.85;7.63;;;;;;;;;;4973982;28;20050;-85
2021/12/29 11:06:43;;;;;;;28.58;13.82;;;;;;;;;;4979356;28;20038;-85
2021/12/29 11:09:11;;;;;;;15.38;5.63;;;;;;;;;;4971793;28;21744;-84
2021/12/29 11:11:39;;;;;;;15.15;5.97;;;;;;;;;;4974384;28;20154;-84
2021/12/29 11:14:16;;;;;;;12.80;5.15;;;;;;;;;;4970572;28;20122;-84
2021/12/29 11:16:43;;;;;;;12.70;5.10;;;;;;;;;;4970608;28;20043;-84
2021/12/29 11:19:09;;;;;;;10.35;5.32;;;;;;;;;;4969048;28;20445;-85
2021/12/29 11:21:37;;;;;;;13.82;4.63;;;;;;;;;;4971461;28;20035;-85
2021/12/29 11:24:23;;;;;;;11.98;5.15;;;;;;;;;;4973903;28;20138;-85
2021/12/29 11:26:50;;;;;;;10.75;4.78;;;;;;;;;;4972928;28;20046;-85
2021/12/29 11:29:17;;;;;;;10.23;5.05;;;;;;;;;;4974598;28;20057;-85
2021/12/29 11:31:45;;;;;;;10.38;5.20;;;;;;;;;;4976767;28;20042;-84
2021/12/29 11:34:26;;;;;;;10.80;5.32;;;;;;;;;;4973880;28;20511;-85
2021/12/29 11:37:11;;;;;;;9.18;4.82;;;;;;;;;;4977116;28;20098;-85
2021/12/29 11:39:39;;;;;;;8.10;4.45;;;;;;;;;;4975339;28;20554;-84
2021/12/29 11:42:05;;;;;;;11.93;5.07;;;;;;;;;;4978662;28;20058;-84
2021/12/29 11:44:32;;;;;;;9.82;6.07;;;;;;;;;;4974688;28;20501;-84
2021/12/29 11:46:58;;;;;;;17.23;10.52;;;;;;;;;;4974038;28;20050;-84
2021/12/29 11:49:24;;;;;;;13.30;6.00;;;;;;;;;;4967973;28;20129;-84
2021/12/29 11:52:06;;;;;;;13.43;4.57;;;;;;;;;;4974022;28;20299;-84
2021/12/29 11:54:37;;;;;;;12.98;4.72;;;;;;;;;;4969954;28;20061;-84
2021/12/29 11:57:10;;;;;;;9.35;4.82;;;;;;;;;;4966918;28;20475;-83
2021/12/29 11:59:36;;;;;;;13.32;5.20;;;;;;;;;;4969236;28;20066;-83
2021/12/29 12:02:03;;;;;;;14.73;4.53;;;;;;;;;;4974353;28;20050;-85
2021/12/29 12:04:29;;;;;;;11.05;4.80;;;;;;;;;;4971479;28;20050;-84
2021/12/29 12:07:07;;;;;;;7.72;4.55;;;;;;;;;;4970204;28;20102;-83
2021/12/29 12:09:46;;;;;;;9.38;4.90;;;;;;;;;;4969522;28;20137;-84
2021/12/29 12:12:13;;;;;;;10.05;4.95;;;;;;;;;;4972911;28;20051;-83
2021/12/29 12:14:49;;;;;;;11.63;5.35;;;;;;;;;;4970107;28;20097;-84
2021/12/29 12:17:19;;;;;;;14.95;5.65;;;;;;;;;;4968714;28;20062;-83
2021/12/29 12:19:47;;;;;;;10.07;5.00;;;;;;;;;;4964727;28;20089;-82
2021/12/29 12:22:13;;;;;;;13.27;5.22;;;;;;;;;;4970402;28;20050;-86
2021/12/29 12:24:41;;;;;;;11.93;5.80;;;;;;;;;;4971633;28;20046;-86
2021/12/29 12:27:25;;;;;;;13.63;5.40;;;;;;;;;;4968865;28;20035;-85
2021/12/29 12:29:59;;;;;;;12.13;5.50;;;;;;;;;;4973040;28;20050;-86
2021/12/29 12:32:25;;;;;;;11.00;5.55;;;;;;;;;;4970756;28;20053;-86
2021/12/29 12:34:56;;;;;;;12.10;6.40;;;;;;;;;;4970672;28;20050;-85
2021/12/29 12:37:24;;;;;;;14.65;6.15;;;;;;;;;;4965277;28;20170;-86
2021/12/29 12:39:54;;;;;;;11.80;6.18;;;;;;;;;;4963673;28;20050;-85
2021/12/29 12:42:21;;;;;;;11.98;6.18;;;;;;;;;;4971983;28;20216;-85
2021/12/29 12:44:47;;;;;;;12.30;6.07;;;;;;;;;;4970260;28;20082;-85
2021/12/29 12:47:14;;;;;;;15.95;6.72;;;;;;;;;;4971040;28;20050;-86
2021/12/29 12:49:42;;;;;;;13.27;6.50;;;;;;;;;;4973279;28;20160;-84
2021/12/29 12:52:10;;;;;;;12.23;6.45;;;;;;;;;;4968779;28;20091;-84
2021/12/29 12:54:37;;;;;;;13.18;7.10;;;;;;;;;;4972077;28;20073;-85
2021/12/29 12:57:04;;;;;;;13.40;6.60;;;;;;;;;;4968509;28;20488;-84
2021/12/29 12:59:37;;;;;;;13.45;6.50;;;;;;;;;;4966620;28;20055;-85
2021/12/29 13:02:14;;;;;;;11.23;6.15;;;;;;;;;;4971870;28;20043;-85
2021/12/29 13:04:59;;;;;;;10.18;6.70;;;;;;;;;;4965385;28;20042;-85
2021/12/29 13:07:25;;;;;;;16.17;7.38;;;;;;;;;;4974083;28;20038;-85
2021/12/29 13:09:51;;;;;;;15.07;6.88;;;;;;;;;;4968134;28;20406;-85
2021/12/29 13:12:25;;;;;;;11.73;6.93;;;;;;;;;;4968076;28;20053;-85
2021/12/29 13:14:57;;;;;;;11.70;6.80;;;;;;;;;;4967401;28;20054;-86
2021/12/29 13:17:23;;;;;;;14.45;7.75;;;;;;;;;;4972090;28;20054;-82
2021/12/29 13:19:49;;;;;;;10.93;7.28;;;;;;;;;;4969200;28;20129;-84
2021/12/29 13:22:33;;;;;;;17.10;8.25;;;;;;;;;;4969151;28;20066;-86
2021/12/29 13:24:59;;;;;;;;;;;;;;;;;;4970498;28;20070;-86
2021/12/29 13:27:25;;;;;;;14.55;8.05;;;;;;;;;;4968108;28;20370;-86
2021/12/29 13:30:01;;;;;;;15.23;8.60;;;;;;;;;;4968081;28;20043;-85
2021/12/29 13:32:27;;;;;;;13.55;9.07;;;;;;;;;;4970086;28;20133;-86
2021/12/29 13:35:07;;;;;;;13.80;8.75;;;;;;;;;;4970398;28;20129;-86
2021/12/29 13:37:33;;;;;;;11.85;8.25;;;;;;;;;;4963389;28;20055;-86
2021/12/29 13:40:00;;;;;;;14.27;8.90;;;;;;;;;;4970806;28;20065;-86
2021/12/29 13:42:27;;;;;;;11.05;9.02;;;;;;;;;;4967431;28;20349;-86
2021/12/29 13:44:54;;;;;;;13.45;8.85;;;;;;;;;;4968248;28;20050;-85
2021/12/29 13:47:21;;;;;;;14.32;8.68;;;;;;;;;;4965311;28;20207;-85
2021/12/29 13:49:47;;;;;;;15.88;9.52;;;;;;;;;;4968532;28;20061;-84
2021/12/29 13:52:13;;;;;;;14.85;9.02;;;;;;;;;;4967723;28;20035;-84
2021/12/29 13:54:39;;;;;;;18.20;9.43;;;;;;;;;;4968778;28;20110;-83
2021/12/29 13:57:05;;;;;;;14.05;8.93;;;;;;;;;;4969143;28;20051;-83
2021/12/29 13:59:33;;;;;;;12.05;9.30;;;;;;;;;;4965596;28;20538;-83
2021/12/29 14:02:02;;;;;;;13.85;9.95;;;;;;;;;;4971324;28;20469;-83
2021/12/29 14:04:33;;;;;;;12.98;9.10;;;;;;;;;;4966568;28;20157;-83
2021/12/29 14:07:01;;;;;;;16.35;9.48;;;;;;;;;;4973331;28;20065;-85
2021/12/29 14:09:32;;;;;;;17.00;9.25;;;;;;;;;;4967121;28;20505;-87
2021/12/29 14:12:09;;;;;;;15.30;9.95;;;;;;;;;;4970246;28;20053;-86
2021/12/29 14:14:35;;;;;;;13.70;9.55;;;;;;;;;;4972201;28;20503;-79
2021/12/29 14:17:01;;;;;;;12.88;9.73;;;;;;;;;;4971837;28;20038;-84
2021/12/29 14:19:28;;;;;;;12.75;9.65;;;;;;;;;;4970640;28;20145;-84
2021/12/29 14:21:54;;;;;;;17.88;10.48;;;;;;;;;;4968188;28;20042;-85
2021/12/29 14:24:21;;;;;;;15.68;10.55;;;;;;;;;;4968913;28;20090;-84
2021/12/29 14:26:50;;;;;;;15.65;9.90;;;;;;;;;;4970708;28;20074;-83
2021/12/29 14:29:19;;;;;;;15.50;10.20;;;;;;;;;;4974879;28;20105;-84
2021/12/29 14:31:53;;;;;;;17.98;10.82;;;;;;;;;;4973767;28;20038;-85
2021/12/29 14:34:19;;;;;;;;;;;;;;;;;;4966083;28;20138;-85
2021/12/29 14:36:55;;;;;;;17.00;11.07;;;;;;;;;;4970092;28;20005;-87